Time;durP1;ratioP1;P1;durP2;ratioP2;P2;SDS_P1;SDS_P2;PMS_P1;PMS_P2;Temp;Humidity;BMP_temperature;BMP_pressure;BME280_temperature;BME280_humidity;BME280_pressure;Samples;Min_cycle;Max_cycle;Signal;HPM_P1;HPM_P2
2023/07/01 00:02:10;;;;;;;5.13;2.13;;;18.60;99.90;;;;;;5015865;28;20037;-78
2023/07/01 00:04:35;;;;;;;5.25;1.88;;;18.60;99.90;;;;;;5031817;28;20048;-76
2023/07/01 00:07:01;;;;;;;3.38;2.00;;;18.60;99.90;;;;;;5029605;28;20151;-78
2023/07/01 00:09:27;;;;;;;3.90;2.08;;;18.50;99.90;;;;;;5047658;28;20419;-76
2023/07/01 00:11:53;;;;;;;3.60;1.98;;;18.50;99.90;;;;;;5065125;28;20044;-80
2023/07/01 00:14:18;;;;;;;4.40;1.80;;;18.60;99.90;;;;;;5048997;28;20093;-77
2023/07/01 00:16:44;;;;;;;4.55;1.70;;;18.50;99.90;;;;;;5047641;28;20401;-76
2023/07/01 00:19:10;;;;;;;3.90;1.88;;;18.60;99.90;;;;;;5049382;28;20048;-77
2023/07/01 00:21:36;;;;;;;5.20;2.15;;;18.60;99.90;;;;;;5015583;28;20084;-75
2023/07/01 00:24:01;;;;;;;5.93;2.13;;;18.60;99.90;;;;;;5016039;28;20045;-79
2023/07/01 00:26:27;;;;;;;6.70;2.50;;;18.60;99.90;;;;;;5049193;28;20060;-77
2023/07/01 00:28:53;;;;;;;4.75;2.10;;;18.60;99.90;;;;;;5045338;28;20048;-78
2023/07/01 00:31:19;;;;;;;5.72;2.08;;;18.60;99.90;;;;;;5048548;28;20045;-75
2023/07/01 00:33:44;;;;;;;5.78;2.20;;;18.60;99.90;;;;;;5031859;28;20053;-77
2023/07/01 00:36:10;;;;;;;3.90;2.13;;;18.60;99.90;;;;;;5032398;28;20168;-78
2023/07/01 00:38:36;;;;;;;6.22;2.20;;;18.60;99.90;;;;;;4999193;28;20397;-78
2023/07/01 00:41:02;;;;;;;7.80;2.47;;;18.60;99.90;;;;;;5048681;28;20045;-79
2023/07/01 00:43:27;;;;;;;4.85;2.10;;;18.60;99.90;;;;;;5048634;28;20041;-77
2023/07/01 00:45:53;;;;;;;5.07;1.95;;;18.60;99.90;;;;;;5015221;28;20410;-76
2023/07/01 00:48:24;;;;;;;7.22;2.63;;;18.60;99.90;;;;;;5013754;28;20041;-78
2023/07/01 00:50:51;;;;;;;5.97;2.40;;;18.60;99.90;;;;;;5031390;28;20040;-78
2023/07/01 00:53:17;;;;;;;5.82;2.20;;;18.60;99.90;;;;;;5031403;28;20075;-78
2023/07/01 00:55:42;;;;;;;5.13;2.30;;;18.60;99.90;;;;;;5031332;28;20182;-77
2023/07/01 00:58:08;;;;;;;3.97;2.10;;;18.60;99.90;;;;;;5030696;28;20052;-80
2023/07/01 01:00:34;;;;;;;4.85;2.40;;;18.60;99.90;;;;;;5031764;28;20080;-79
2023/07/01 01:03:08;;;;;;;5.10;2.10;;;18.60;99.90;;;;;;5047021;28;20508;-80
2023/07/01 01:05:53;;;;;;;4.80;2.33;;;18.60;99.90;;;;;;5031444;28;20125;-77
2023/07/01 01:08:38;;;;;;;6.47;2.25;;;18.60;99.90;;;;;;5031362;28;20033;-78
2023/07/01 01:11:04;;;;;;;;;;;18.60;99.90;;;;;;5032340;28;20645;-80
2023/07/01 01:13:31;;;;;;;7.22;2.45;;;18.60;99.90;;;;;;5031642;28;20553;-80
2023/07/01 01:15:58;;;;;;;5.18;2.65;;;18.60;99.90;;;;;;5047844;28;20048;-81
2023/07/01 01:18:28;;;;;;;6.00;2.17;;;18.60;99.90;;;;;;5046678;28;20527;-77
2023/07/01 01:20:55;;;;;;;7.45;3.22;;;18.60;99.90;;;;;;5046760;28;20653;-79
2023/07/01 01:23:32;;;;;;;3.17;2.05;;;18.60;99.90;;;;;;5047417;28;20045;-80
2023/07/01 01:26:09;;;;;;;5.60;1.83;;;18.60;99.90;;;;;;5047662;28;20435;-75
2023/07/01 01:28:36;;;;;;;4.90;2.30;;;18.60;99.90;;;;;;5047232;28;20052;-78
2023/07/01 01:31:02;;;;;;;5.32;2.50;;;18.60;99.90;;;;;;5047602;28;20091;-79
2023/07/01 01:33:28;;;;;;;4.85;2.72;;;18.60;99.90;;;;;;5015191;28;20071;-78
2023/07/01 01:36:08;;;;;;;7.78;2.80;;;18.60;99.90;;;;;;5031027;28;20041;-77
2023/07/01 01:38:36;;;;;;;7.03;2.33;;;18.60;99.90;;;;;;5031454;28;20049;-77
2023/07/01 01:41:09;;;;;;;5.97;2.60;;;18.60;99.90;;;;;;5043232;28;20068;-76
2023/07/01 01:43:42;;;;;;;5.18;2.55;;;18.60;99.90;;;;;;5046333;28;20056;-77
2023/07/01 01:46:09;;;;;;;6.28;2.33;;;18.50;99.90;;;;;;5048091;28;20037;-76
2023/07/01 01:48:37;;;;;;;6.88;2.50;;;18.40;99.90;;;;;;5031694;28;20412;-75
2023/07/01 01:51:04;;;;;;;5.50;2.65;;;18.30;99.90;;;;;;5030467;28;20068;-80
2023/07/01 01:53:32;;;;;;;6.93;2.95;;;18.10;99.90;;;;;;5031156;28;20041;-78
2023/07/01 01:55:59;;;;;;;4.72;2.15;;;18.10;99.90;;;;;;5047416;28;20044;-77
2023/07/01 01:58:26;;;;;;;4.53;2.67;;;18.10;99.90;;;;;;5048884;28;20110;-76
2023/07/01 02:00:51;;;;;;;5.80;2.80;;;18.00;99.90;;;;;;5037106;28;20037;-78
2023/07/01 02:03:17;;;;;;;6.68;3.05;;;17.70;99.90;;;;;;5030647;28;20052;-77
2023/07/01 02:05:43;;;;;;;5.40;2.83;;;17.70;99.90;;;;;;5043623;28;20039;-80
2023/07/01 02:08:08;;;;;;;9.77;2.90;;;17.50;99.90;;;;;;5031091;28;20535;-79
2023/07/01 02:10:34;;;;;;;9.38;3.25;;;17.40;99.90;;;;;;5014218;28;20068;-77
2023/07/01 02:13:01;;;;;;;6.50;3.05;;;17.30;99.90;;;;;;5014424;28;20063;-80
2023/07/01 02:15:27;;;;;;;4.20;2.85;;;17.20;99.90;;;;;;5050785;28;20052;-79
2023/07/01 02:17:53;;;;;;;8.77;3.38;;;17.20;99.90;;;;;;5050563;28;20045;-79
2023/07/01 02:20:19;;;;;;;5.97;3.08;;;17.20;99.90;;;;;;5045139;28;20049;-80
2023/07/01 02:22:44;;;;;;;6.72;3.47;;;17.10;99.90;;;;;;5043579;28;20041;-79
2023/07/01 02:25:10;;;;;;;5.13;3.40;;;17.10;99.90;;;;;;5047296;28;20405;-78
2023/07/01 02:27:36;;;;;;;4.82;2.67;;;17.10;99.90;;;;;;5047956;28;20033;-78
2023/07/01 02:30:03;;;;;;;5.15;3.17;;;17.20;99.90;;;;;;5028576;28;20048;-77
2023/07/01 02:32:29;;;;;;;10.88;4.40;;;17.10;99.90;;;;;;5047345;28;20086;-77
2023/07/01 02:34:55;;;;;;;5.88;3.85;;;17.20;99.90;;;;;;5015281;28;20055;-77
2023/07/01 02:37:21;;;;;;;7.45;3.58;;;17.20;99.90;;;;;;4999113;28;20037;-80
2023/07/01 02:39:47;;;;;;;7.03;3.42;;;17.30;99.90;;;;;;5017964;28;20503;-78
2023/07/01 02:42:19;;;;;;;6.80;3.72;;;17.30;99.90;;;;;;5034681;28;20044;-79
2023/07/01 02:44:46;;;;;;;7.07;3.00;;;17.30;99.90;;;;;;5034884;28;20037;-78
2023/07/01 02:47:12;;;;;;;10.23;3.70;;;17.30;99.90;;;;;;5047332;28;20060;-80
2023/07/01 02:49:40;;;;;;;7.93;4.20;;;17.40;99.90;;;;;;5048873;28;20119;-79
2023/07/01 02:52:10;;;;;;;4.40;3.42;;;17.40;99.90;;;;;;5045423;28;20075;-81
2023/07/01 02:54:40;;;;;;;6.80;3.95;;;17.40;99.90;;;;;;5049769;28;20045;-79
2023/07/01 02:57:07;;;;;;;7.85;3.60;;;17.40;99.90;;;;;;5050323;28;20400;-78
2023/07/01 02:59:33;;;;;;;5.63;3.72;;;17.40;99.90;;;;;;5050517;28;20045;-78
2023/07/01 03:01:59;;;;;;;8.93;4.25;;;17.50;99.90;;;;;;5049748;28;20041;-77
2023/07/01 03:04:25;;;;;;;7.65;3.83;;;17.50;99.90;;;;;;5033435;28;20060;-77
2023/07/01 03:06:50;;;;;;;8.18;4.80;;;17.40;99.90;;;;;;5032009;28;20033;-77
2023/07/01 03:09:16;;;;;;;8.30;4.57;;;17.60;99.90;;;;;;5050486;28;20056;-80
2023/07/01 03:11:42;;;;;;;7.15;4.60;;;17.60;99.90;;;;;;5049975;28;20715;-76
2023/07/01 03:14:08;;;;;;;6.75;4.70;;;17.60;99.90;;;;;;5014093;28;20098;-79
2023/07/01 03:16:33;;;;;;;10.23;5.53;;;17.60;99.90;;;;;;5033825;28;20045;-79
2023/07/01 03:18:59;;;;;;;6.53;4.82;;;17.40;99.90;;;;;;5017075;28;20044;-76
2023/07/01 03:21:26;;;;;;;12.43;5.25;;;17.40;99.90;;;;;;5034052;28;20651;-82
2023/07/01 03:23:52;;;;;;;10.00;5.30;;;17.50;99.90;;;;;;5048185;28;20037;-78
2023/07/01 03:26:18;;;;;;;5.20;4.68;;;17.40;99.90;;;;;;5031970;28;20043;-77
2023/07/01 03:28:45;;;;;;;10.80;5.05;;;17.40;99.90;;;;;;5014314;28;20040;-80
2023/07/01 03:31:11;;;;;;;7.57;4.43;;;17.40;99.90;;;;;;5033157;28;20056;-76
2023/07/01 03:33:36;;;;;;;7.20;4.68;;;17.40;99.90;;;;;;5032111;28;20198;-80
2023/07/01 03:36:03;;;;;;;8.55;4.88;;;17.30;99.90;;;;;;5016649;28;20128;-74
2023/07/01 03:38:28;;;;;;;6.47;4.47;;;17.40;99.90;;;;;;5049983;28;20051;-79
2023/07/01 03:40:54;;;;;;;8.40;5.18;;;17.30;99.90;;;;;;5039455;28;20414;-78
2023/07/01 03:43:22;;;;;;;7.10;4.65;;;17.30;99.90;;;;;;5033788;28;20524;-78
2023/07/01 03:45:48;;;;;;;11.18;4.93;;;17.30;99.90;;;;;;5016165;28;20049;-80
2023/07/01 03:48:14;;;;;;;7.05;4.68;;;17.30;99.90;;;;;;5031052;28;20103;-78
2023/07/01 03:50:40;;;;;;;5.35;4.00;;;17.30;99.90;;;;;;5048485;28;20044;-82
2023/07/01 03:53:06;;;;;;;3.58;2.67;;;17.30;99.90;;;;;;5032975;28;20346;-80
2023/07/01 03:55:31;;;;;;;8.43;4.30;;;17.20;99.90;;;;;;5013654;28;20052;-82
2023/07/01 03:57:57;;;;;;;9.68;4.65;;;17.30;99.90;;;;;;5060436;28;20408;-79
2023/07/01 04:00:23;;;;;;;10.32;4.30;;;17.30;99.90;;;;;;5033225;28;20048;-79
2023/07/01 04:02:51;;;;;;;12.30;4.57;;;17.20;99.90;;;;;;5032577;28;20083;-77
2023/07/01 04:05:17;;;;;;;7.38;4.03;;;17.20;99.90;;;;;;5049454;28;20128;-81
2023/07/01 04:07:46;;;;;;;6.13;3.90;;;17.20;99.90;;;;;;4999100;28;20036;-79
2023/07/01 04:10:13;;;;;;;5.35;3.40;;;17.30;99.90;;;;;;5047172;28;20459;-81
2023/07/01 04:12:40;;;;;;;5.90;3.47;;;17.20;99.90;;;;;;5026612;28;20629;-79
2023/07/01 04:15:09;;;;;;;5.90;4.32;;;17.20;99.90;;;;;;5048422;28;20037;-77
2023/07/01 04:17:46;;;;;;;6.97;4.13;;;17.20;99.90;;;;;;5049189;28;20437;-78
2023/07/01 04:20:15;;;;;;;4.80;3.92;;;17.20;99.90;;;;;;5031157;28;20041;-75
2023/07/01 04:22:42;;;;;;;6.20;3.05;;;17.20;99.90;;;;;;5022502;28;20611;-79
2023/07/01 04:25:08;;;;;;;9.02;4.38;;;17.30;99.90;;;;;;5051752;28;20441;-78
2023/07/01 04:27:35;;;;;;;7.60;3.65;;;17.30;99.90;;;;;;5068806;28;20467;-77
2023/07/01 04:30:02;;;;;;;6.80;3.58;;;17.20;99.90;;;;;;5045491;28;20044;-79
2023/07/01 04:32:28;;;;;;;6.15;3.50;;;17.20;99.90;;;;;;5015726;28;20044;-78
2023/07/01 04:34:54;;;;;;;9.50;3.60;;;17.30;99.90;;;;;;5048479;28;20033;-81
2023/07/01 04:37:20;;;;;;;3.75;3.25;;;17.30;99.90;;;;;;5032121;28;20043;-80
2023/07/01 04:39:46;;;;;;;5.75;3.92;;;17.30;99.90;;;;;;5030454;28;20036;-77
2023/07/01 04:42:11;;;;;;;5.22;2.53;;;17.30;99.90;;;;;;5048087;28;20110;-79
2023/07/01 04:44:37;;;;;;;5.57;3.88;;;17.40;99.90;;;;;;5048146;28;20080;-75
2023/07/01 04:47:03;;;;;;;7.63;4.38;;;17.40;99.90;;;;;;5028637;28;20082;-78
2023/07/01 04:49:29;;;;;;;4.68;3.70;;;17.50;99.90;;;;;;5030626;28;20037;-80
2023/07/01 04:51:56;;;;;;;6.50;4.88;;;17.50;99.90;;;;;;5031425;28;20041;-75
2023/07/01 04:54:21;;;;;;;6.57;4.38;;;17.40;99.90;;;;;;5048581;28;20386;-77
2023/07/01 04:56:47;;;;;;;7.20;3.95;;;17.40;99.90;;;;;;5031753;28;20041;-77
2023/07/01 04:59:13;;;;;;;6.72;3.90;;;17.40;99.90;;;;;;5031215;28;20048;-81
2023/07/01 05:01:39;;;;;;;6.65;4.43;;;17.40;99.90;;;;;;5025329;28;20040;-78
2023/07/01 05:04:04;;;;;;;5.45;4.45;;;17.50;99.90;;;;;;5060126;28;20032;-76
2023/07/01 05:06:31;;;;;;;8.23;4.80;;;17.50;99.90;;;;;;5068018;28;20040;-77
2023/07/01 05:08:57;;;;;;;7.82;4.40;;;17.60;99.90;;;;;;5035020;28;20675;-78
2023/07/01 05:11:23;;;;;;;5.85;4.47;;;17.50;99.90;;;;;;5018085;28;20495;-78
2023/07/01 05:13:49;;;;;;;6.72;5.05;;;17.50;99.90;;;;;;5031182;28;20137;-77
2023/07/01 05:16:15;;;;;;;7.43;5.03;;;17.70;99.90;;;;;;5047385;28;20052;-78
2023/07/01 05:18:40;;;;;;;6.47;4.82;;;17.60;99.90;;;;;;5031531;28;20480;-76
2023/07/01 05:21:06;;;;;;;7.95;4.78;;;17.50;99.90;;;;;;5010875;28;20440;-76
2023/07/01 05:23:32;;;;;;;10.23;4.70;;;17.60;99.90;;;;;;5047484;28;20051;-75
2023/07/01 05:25:58;;;;;;;7.57;5.07;;;17.70;99.90;;;;;;4998419;28;20127;-75
2023/07/01 05:28:24;;;;;;;7.85;4.75;;;17.70;99.90;;;;;;5031301;28;20576;-76
2023/07/01 05:30:50;;;;;;;8.38;4.50;;;17.70;99.90;;;;;;4995988;28;20134;-75
2023/07/01 05:33:16;;;;;;;9.57;6.20;;;17.70;99.90;;;;;;5038937;28;20473;-78
2023/07/01 05:35:41;;;;;;;6.53;4.75;;;17.70;99.90;;;;;;5047835;28;20131;-79
2023/07/01 05:38:17;;;;;;;5.22;4.20;;;17.90;99.90;;;;;;5050623;28;20490;-78
2023/07/01 05:40:52;;;;;;;8.52;4.47;;;17.80;99.90;;;;;;5035480;28;20107;-76
2023/07/01 05:43:18;;;;;;;11.07;4.40;;;17.70;99.90;;;;;;5042471;28;20099;-82
2023/07/01 05:45:47;;;;;;;5.68;4.15;;;17.80;99.90;;;;;;4978519;28;20405;-77
2023/07/01 05:48:13;;;;;;;5.18;4.38;;;17.50;99.90;;;;;;5027083;28;20052;-78
2023/07/01 05:50:39;;;;;;;7.05;5.15;;;17.90;99.90;;;;;;5027934;28;20382;-76
2023/07/01 05:53:05;;;;;;;6.13;4.55;;;17.90;99.90;;;;;;5021158;28;20657;-80
2023/07/01 05:55:30;;;;;;;7.88;4.60;;;17.90;99.90;;;;;;5062126;28;20045;-80
2023/07/01 05:57:56;;;;;;;5.47;4.53;;;18.00;99.90;;;;;;5050863;28;20559;-80
2023/07/01 06:00:28;;;;;;;8.13;4.65;;;17.90;99.90;;;;;;5050666;28;20264;-77
2023/07/01 06:03:13;;;;;;;11.88;5.65;;;18.00;99.90;;;;;;5005035;28;20050;-78
2023/07/01 06:05:45;;;;;;;7.07;5.35;;;18.00;99.90;;;;;;5031075;28;20040;-78
2023/07/01 06:08:11;;;;;;;6.80;4.90;;;18.10;99.90;;;;;;5030399;28;20041;-76
2023/07/01 06:10:37;;;;;;;5.93;4.43;;;18.00;99.90;;;;;;5028773;28;20366;-77
2023/07/01 06:13:03;;;;;;;9.02;4.93;;;18.00;99.90;;;;;;5043964;28;20061;-73
2023/07/01 06:15:28;;;;;;;6.95;4.75;;;18.10;99.90;;;;;;5020956;28;20045;-76
2023/07/01 06:17:54;;;;;;;6.35;4.53;;;18.00;99.90;;;;;;5031306;28;20077;-74
2023/07/01 06:20:20;;;;;;;8.43;4.78;;;18.10;99.90;;;;;;5033989;28;20067;-77
2023/07/01 06:22:45;;;;;;;6.20;5.00;;;18.00;99.90;;;;;;5056798;28;20090;-78
2023/07/01 06:25:11;;;;;;;6.45;4.72;;;18.10;99.90;;;;;;5029528;28;20048;-77
2023/07/01 06:27:40;;;;;;;6.95;4.72;;;18.10;99.90;;;;;;5014360;28;20358;-76
2023/07/01 06:30:06;;;;;;;8.75;5.05;;;18.00;99.90;;;;;;5049557;28;20079;-79
2023/07/01 06:32:32;;;;;;;9.00;5.10;;;18.10;99.90;;;;;;5035045;28;20041;-76
2023/07/01 06:34:57;;;;;;;6.38;5.00;;;17.90;99.90;;;;;;5047454;28;20125;-77
2023/07/01 06:37:23;;;;;;;8.65;5.95;;;18.00;99.90;;;;;;5050538;28;20048;-75
2023/07/01 06:39:49;;;;;;;7.53;5.40;;;17.90;99.90;;;;;;5051159;28;20076;-78
2023/07/01 06:42:14;;;;;;;6.63;5.40;;;17.70;99.90;;;;;;5015717;28;20604;-82
2023/07/01 06:44:45;;;;;;;9.70;5.93;;;17.80;99.90;;;;;;5049938;28;20064;-76
2023/07/01 06:47:11;;;;;;;9.00;5.35;;;17.80;99.90;;;;;;5034462;28;20041;-78
2023/07/01 06:49:36;;;;;;;7.45;6.15;;;17.70;99.90;;;;;;5034174;28;20547;-79
2023/07/01 06:52:02;;;;;;;6.68;4.88;;;17.60;99.90;;;;;;5033765;28;20489;-77
2023/07/01 06:54:28;;;;;;;7.85;6.35;;;17.70;99.90;;;;;;5032927;28;20481;-77
2023/07/01 06:56:54;;;;;;;11.48;6.57;;;17.90;99.90;;;;;;5050643;28;20102;-77
2023/07/01 06:59:20;;;;;;;7.30;6.60;;;17.70;99.90;;;;;;5030592;28;20421;-79
2023/07/01 07:01:45;;;;;;;10.48;6.72;;;17.80;99.90;;;;;;5049487;28;20040;-78
2023/07/01 07:04:11;;;;;;;8.75;6.57;;;17.90;99.90;;;;;;5055456;28;20428;-77
2023/07/01 07:06:37;;;;;;;8.27;6.30;;;18.00;99.90;;;;;;5014103;28;20076;-77
2023/07/01 07:09:03;;;;;;;7.10;6.30;;;18.00;99.90;;;;;;5048120;28;20076;-76
2023/07/01 07:11:30;;;;;;;8.35;6.38;;;17.90;99.90;;;;;;5050281;28;20401;-81
2023/07/01 07:13:56;;;;;;;8.57;6.80;;;17.90;99.90;;;;;;5049541;28;20659;-83
2023/07/01 07:16:21;;;;;;;6.97;6.28;;;17.90;99.90;;;;;;5015185;28;20159;-75
2023/07/01 07:18:47;;;;;;;8.85;6.85;;;18.10;99.90;;;;;;5030974;28;20047;-80
2023/07/01 07:21:13;;;;;;;11.60;7.00;;;18.20;99.90;;;;;;5032044;28;20120;-82
2023/07/01 07:23:39;;;;;;;8.38;6.32;;;18.30;99.90;;;;;;5032559;28;20040;-79
2023/07/01 07:26:07;;;;;;;7.45;6.55;;;18.00;99.90;;;;;;5013933;28;20086;-78
2023/07/01 07:28:33;;;;;;;6.95;6.20;;;18.20;99.90;;;;;;5032731;28;20081;-75
2023/07/01 07:30:59;;;;;;;7.55;5.65;;;18.40;99.90;;;;;;5048502;28;20029;-80
2023/07/01 07:33:25;;;;;;;8.90;6.10;;;18.20;99.90;;;;;;5032731;28;20127;-79
2023/07/01 07:35:50;;;;;;;8.15;5.90;;;18.20;99.90;;;;;;5044242;28;20168;-80
2023/07/01 07:38:16;;;;;;;6.93;6.22;;;18.50;99.90;;;;;;5014331;28;20049;-82
2023/07/01 07:40:43;;;;;;;8.10;5.90;;;18.40;99.90;;;;;;5033098;28;20707;-76
2023/07/01 07:43:10;;;;;;;5.55;5.03;;;18.40;99.90;;;;;;5049354;28;20416;-80
2023/07/01 07:45:36;;;;;;;6.57;5.97;;;18.50;99.90;;;;;;5033081;28;20045;-80
2023/07/01 07:48:01;;;;;;;5.72;5.20;;;18.50;99.90;;;;;;5015231;28;20037;-76
2023/07/01 07:50:27;;;;;;;7.70;5.75;;;18.40;99.90;;;;;;5032651;28;20045;-79
2023/07/01 07:52:53;;;;;;;6.03;5.47;;;18.70;99.90;;;;;;5045277;28;20040;-85
2023/07/01 07:55:19;;;;;;;5.78;5.18;;;18.60;99.90;;;;;;5068839;28;20048;-79
2023/07/01 07:57:44;;;;;;;7.32;4.78;;;18.60;99.90;;;;;;5039154;28;20112;-79
2023/07/01 08:00:11;;;;;;;6.05;5.55;;;18.50;99.90;;;;;;5032257;28;20048;-78
2023/07/01 08:02:42;;;;;;;6.22;5.45;;;18.50;99.90;;;;;;5047277;28;20041;-77
2023/07/01 08:05:08;;;;;;;5.70;5.03;;;18.60;99.90;;;;;;5032731;28;20111;-79
2023/07/01 08:07:34;;;;;;;7.22;5.20;;;18.70;99.90;;;;;;5013257;28;20040;-81
2023/07/01 08:09:59;;;;;;;5.57;5.07;;;18.70;99.90;;;;;;5052020;28;20566;-78
2023/07/01 08:12:25;;;;;;;5.28;4.78;;;19.00;99.90;;;;;;5052265;28;20048;-78
2023/07/01 08:14:51;;;;;;;6.18;4.95;;;18.90;99.90;;;;;;5036791;28;20033;-75
2023/07/01 08:17:16;;;;;;;6.05;5.45;;;19.00;99.90;;;;;;5023624;28;20052;-74
2023/07/01 08:19:43;;;;;;;5.72;5.13;;;19.10;99.90;;;;;;5022702;28;20684;-74
2023/07/01 08:22:09;;;;;;;5.85;5.25;;;19.20;99.90;;;;;;5047932;28;20829;-81
2023/07/01 08:24:34;;;;;;;5.72;4.85;;;19.00;99.90;;;;;;5031792;28;20048;-78
2023/07/01 08:27:00;;;;;;;5.68;5.07;;;19.30;99.90;;;;;;5027521;28;20037;-79
2023/07/01 08:29:26;;;;;;;6.20;5.60;;;19.30;99.90;;;;;;5030427;28;20146;-77
2023/07/01 08:31:51;;;;;;;6.68;4.75;;;19.30;99.90;;;;;;5048042;28;20099;-77
2023/07/01 08:34:17;;;;;;;5.75;5.22;;;19.30;99.90;;;;;;5047779;28;20116;-75
2023/07/01 08:36:43;;;;;;;6.88;6.13;;;19.10;99.90;;;;;;5030116;28;20560;-77
2023/07/01 08:39:09;;;;;;;6.18;5.57;;;19.30;99.90;;;;;;5023229;28;20048;-73
2023/07/01 08:41:45;;;;;;;5.95;5.35;;;19.10;99.90;;;;;;5031364;28;20048;-74
2023/07/01 08:44:11;;;;;;;6.72;5.72;;;19.40;99.90;;;;;;5031952;28;20089;-74
2023/07/01 08:46:39;;;;;;;7.40;6.10;;;19.40;99.90;;;;;;5034740;28;20047;-75
2023/07/01 08:49:06;;;;;;;6.50;5.85;;;19.50;99.90;;;;;;5037017;28;20033;-80
2023/07/01 08:51:37;;;;;;;6.88;5.78;;;19.10;99.90;;;;;;5045981;28;20106;-74
2023/07/01 08:54:04;;;;;;;6.35;5.80;;;19.10;99.90;;;;;;5047905;28;20110;-77
2023/07/01 08:56:30;;;;;;;6.13;5.53;;;19.20;99.90;;;;;;5047183;28;20083;-77
2023/07/01 08:58:56;;;;;;;6.22;5.63;;;19.40;99.90;;;;;;5030465;28;20045;-77
2023/07/01 09:01:22;;;;;;;10.35;5.90;;;19.50;99.90;;;;;;5046847;28;20751;-78
2023/07/01 09:03:49;;;;;;;5.97;5.38;;;19.50;99.90;;;;;;5052797;28;20044;-77
2023/07/01 09:06:15;;;;;;;4.70;4.30;;;19.60;99.90;;;;;;5049957;28;20036;-79
2023/07/01 09:08:41;;;;;;;4.97;4.57;;;19.40;99.90;;;;;;5065425;28;20389;-78
2023/07/01 09:11:10;;;;;;;5.47;4.97;;;19.30;99.90;;;;;;5030929;28;20040;-77
2023/07/01 09:13:36;;;;;;;5.50;5.00;;;19.70;99.90;;;;;;5030805;28;20120;-78
2023/07/01 09:16:02;;;;;;;4.95;4.55;;;19.40;99.90;;;;;;5031092;28;20140;-72
2023/07/01 09:18:31;;;;;;;5.70;5.20;;;19.70;99.90;;;;;;5013813;28;20048;-77
2023/07/01 09:20:58;;;;;;;4.97;4.53;;;19.90;99.90;;;;;;5009620;28;20527;-72
2023/07/01 09:23:25;;;;;;;4.90;4.50;;;20.10;99.90;;;;;;5046137;28;20068;-76
2023/07/01 09:25:50;;;;;;;5.18;4.78;;;20.20;99.90;;;;;;5029953;28;20120;-76
2023/07/01 09:28:35;;;;;;;5.07;4.68;;;20.10;99.90;;;;;;5028752;28;20100;-73
2023/07/01 09:31:04;;;;;;;5.28;4.78;;;20.40;99.90;;;;;;5012343;28;20037;-75
2023/07/01 09:33:30;;;;;;;4.70;4.32;;;20.20;99.90;;;;;;5028418;28;20036;-78
2023/07/01 09:36:02;;;;;;;5.15;4.65;;;20.10;99.90;;;;;;5045510;28;20056;-74
2023/07/01 09:38:52;;;;;;;4.65;4.28;;;20.30;99.90;;;;;;5039942;28;20401;-79
2023/07/01 09:41:19;;;;;;;5.13;4.72;;;20.40;99.90;;;;;;5039211;28;20769;-75
2023/07/01 09:43:47;;;;;;;5.38;4.32;;;20.30;99.90;;;;;;5019047;28;20265;-82
2023/07/01 09:46:13;;;;;;;5.05;4.60;;;20.20;99.90;;;;;;5025448;28;20566;-79
2023/07/01 09:48:38;;;;;;;5.28;4.63;;;20.40;99.90;;;;;;5030000;28;20044;-78
2023/07/01 09:51:05;;;;;;;5.57;5.05;;;20.10;99.90;;;;;;5048153;28;20053;-81
2023/07/01 09:53:33;;;;;;;5.28;4.63;;;20.30;99.90;;;;;;5032194;28;20036;-74
2023/07/01 09:56:04;;;;;;;4.75;4.30;;;20.30;99.90;;;;;;5049477;28;20091;-79
2023/07/01 09:58:33;;;;;;;4.90;4.50;;;20.10;99.90;;;;;;5042881;28;20064;-74
2023/07/01 10:01:02;;;;;;;5.13;4.70;;;20.40;99.90;;;;;;5033740;28;20073;-77
2023/07/01 10:03:29;;;;;;;5.50;5.00;;;20.00;99.90;;;;;;5050548;28;20393;-77
2023/07/01 10:05:55;;;;;;;5.35;4.72;;;20.00;99.90;;;;;;5050695;28;20748;-76
2023/07/01 10:08:22;;;;;;;5.47;5.00;;;20.20;99.90;;;;;;5032939;28;20094;-75
2023/07/01 10:11:09;;;;;;;4.72;4.32;;;20.50;99.90;;;;;;5048858;28;20481;-78
2023/07/01 10:13:51;;;;;;;4.90;4.50;;;20.60;99.90;;;;;;5045018;28;20042;-77
2023/07/01 10:16:19;;;;;;;4.47;4.07;;;20.50;99.90;;;;;;5052877;28;20055;-77
2023/07/01 10:18:45;;;;;;;4.68;4.28;;;20.60;99.90;;;;;;5053702;28;20097;-76
2023/07/01 10:21:23;;;;;;;4.40;4.10;;;20.60;99.90;;;;;;5023923;28;20497;-78
2023/07/01 10:23:49;;;;;;;4.30;3.90;;;20.30;99.90;;;;;;5046043;28;20447;-78
2023/07/01 10:26:35;;;;;;;4.40;4.00;;;20.30;99.90;;;;;;5049614;28;20385;-80
2023/07/01 10:29:30;;;;;;;4.13;3.80;;;20.30;99.90;;;;;;5050596;28;20064;-79
2023/07/01 10:32:11;;;;;;;3.80;3.45;;;20.40;99.90;;;;;;5040369;28;20386;-83
2023/07/01 10:34:55;;;;;;;3.97;3.58;;;20.40;99.90;;;;;;5024489;28;20041;-83
2023/07/01 10:37:27;;;;;;;3.23;2.70;;;20.50;99.90;;;;;;5031293;28;20046;-84
2023/07/01 10:39:54;;;;;;;1.90;1.80;;;20.10;99.90;;;;;;5015035;28;20167;-84
2023/07/01 10:42:38;;;;;;;1.60;1.40;;;20.60;99.90;;;;;;5044825;28;20040;-82
2023/07/01 10:45:13;;;;;;;3.13;1.90;;;20.70;99.90;;;;;;5033784;28;20041;-82
2023/07/01 10:48:02;;;;;;;2.17;1.55;;;20.70;99.90;;;;;;5033668;28;20489;-82
2023/07/01 10:50:28;;;;;;;3.17;2.20;;;20.70;99.90;;;;;;5028906;28;20087;-81
2023/07/01 10:52:57;;;;;;;2.97;1.85;;;20.30;99.90;;;;;;5052966;28;20095;-81
2023/07/01 10:55:44;;;;;;;2.78;2.10;;;20.90;99.90;;;;;;5045842;28;20037;-81
2023/07/01 10:58:27;;;;;;;5.75;2.42;;;21.00;99.90;;;;;;5034523;28;20037;-83
2023/07/01 11:00:58;;;;;;;2.60;2.40;;;20.20;99.90;;;;;;5033838;28;20424;-84
2023/07/01 11:03:36;;;;;;;3.88;2.67;;;21.20;99.90;;;;;;5049898;28;20047;-83
2023/07/01 11:06:06;;;;;;;5.30;2.55;;;21.00;99.90;;;;;;5045019;28;20696;-82
2023/07/01 11:08:44;;;;;;;3.55;2.38;;;21.00;99.90;;;;;;5013672;28;20065;-85
2023/07/01 11:11:11;;;;;;;2.58;2.30;;;21.40;99.90;;;;;;5033257;28;20040;-82
2023/07/01 11:13:36;;;;;;;2.90;2.20;;;21.50;99.90;;;;;;5050244;28;20040;-85
2023/07/01 11:16:07;;;;;;;2.20;2.00;;;21.60;99.90;;;;;;5015836;28;20045;-85
2023/07/01 11:18:51;;;;;;;2.08;1.88;;;21.60;99.90;;;;;;5031160;28;20072;-84
2023/07/01 11:21:28;;;;;;;2.33;2.15;;;21.30;99.90;;;;;;5033626;28;20127;-83
2023/07/01 11:24:03;;;;;;;2.47;2.10;;;20.90;99.90;;;;;;5049823;28;20136;-81
2023/07/01 11:26:49;;;;;;;4.22;2.83;;;21.30;99.90;;;;;;5027741;28;20556;-83
2023/07/01 11:29:18;;;;;;;3.38;3.08;;;21.40;99.90;;;;;;5024328;28;20060;-82
2023/07/01 11:31:45;;;;;;;2.90;2.60;;;21.60;99.90;;;;;;5000672;28;20049;-81
2023/07/01 11:34:14;;;;;;;2.75;2.55;;;20.90;99.90;;;;;;5016849;28;20052;-81
2023/07/01 11:36:40;;;;;;;2.83;2.53;;;21.10;99.90;;;;;;5050078;28;20436;-84
2023/07/01 11:39:13;;;;;;;3.20;2.90;;;21.20;99.90;;;;;;5032175;28;20037;-85
2023/07/01 11:41:40;;;;;;;3.60;3.30;;;20.80;99.90;;;;;;5012955;28;20033;-82
2023/07/01 11:44:08;;;;;;;3.75;3.30;;;20.90;99.90;;;;;;5066083;28;20110;-85
2023/07/01 11:46:40;;;;;;;3.80;3.42;;;21.30;99.90;;;;;;5069827;28;20121;-87
2023/07/01 11:49:17;;;;;;;4.10;3.50;;;21.00;99.90;;;;;;5051067;28;20089;-86
2023/07/01 11:51:56;;;;;;;4.05;3.55;;;20.80;99.90;;;;;;5050505;28;20033;-88
2023/07/01 11:54:40;;;;;;;6.30;4.00;;;20.60;99.90;;;;;;5031026;28;20430;-84
2023/07/01 11:57:20;;;;;;;5.43;3.72;;;20.60;99.90;;;;;;5050537;28;20060;-83
2023/07/01 11:59:48;;;;;;;4.25;3.80;;;20.60;99.90;;;;;;5015733;28;20052;-86
2023/07/01 12:02:15;;;;;;;4.55;4.15;;;21.20;99.90;;;;;;5033238;28;20095;-83
2023/07/01 12:04:40;;;;;;;4.57;4.15;;;21.10;99.90;;;;;;5031620;28;20577;-84
2023/07/01 12:07:11;;;;;;;6.05;4.20;;;20.80;99.90;;;;;;5015409;28;20053;-86
2023/07/01 12:09:42;;;;;;;5.03;4.55;;;21.20;99.90;;;;;;5032293;28;20048;-84
2023/07/01 12:12:14;;;;;;;5.40;4.90;;;21.20;99.90;;;;;;5010689;28;20040;-83
2023/07/01 12:14:41;;;;;;;6.38;5.40;;;21.30;99.90;;;;;;5048979;28;20396;-85
2023/07/01 12:17:08;;;;;;;6.65;5.20;;;21.00;99.90;;;;;;5049196;28;20450;-83
2023/07/01 12:19:33;;;;;;;5.90;5.20;;;21.40;99.90;;;;;;5032043;28;20374;-81
2023/07/01 12:22:00;;;;;;;6.82;6.00;;;21.40;99.90;;;;;;5042510;28;20037;-83
2023/07/01 12:24:30;;;;;;;6.47;5.85;;;21.30;99.90;;;;;;5048148;28;20067;-81
2023/07/01 12:27:02;;;;;;;7.43;5.57;;;21.00;99.90;;;;;;5045702;28;20346;-85
2023/07/01 12:29:28;;;;;;;7.30;6.40;;;21.00;99.90;;;;;;5015294;28;20053;-82
2023/07/01 12:31:54;;;;;;;7.40;6.70;;;21.70;99.90;;;;;;5032701;28;20055;-82
2023/07/01 12:34:20;;;;;;;6.85;6.05;;;22.60;99.90;;;;;;5015962;28;20044;-80
2023/07/01 12:36:47;;;;;;;6.80;6.10;;;22.50;99.90;;;;;;5042414;28;20715;-79
2023/07/01 12:39:15;;;;;;;8.88;6.40;;;22.90;99.90;;;;;;5048021;28;20127;-78
2023/07/01 12:41:42;;;;;;;6.35;5.75;;;23.20;99.90;;;;;;5031154;28;20041;-79
2023/07/01 12:44:08;;;;;;;6.18;5.57;;;22.60;99.90;;;;;;5048088;28;20382;-82
2023/07/01 12:46:35;;;;;;;5.57;4.43;;;23.00;99.90;;;;;;5029101;28;20045;-80
2023/07/01 12:49:03;;;;;;;6.10;4.22;;;22.40;99.90;;;;;;5031513;28;20055;-79
2023/07/01 12:51:32;;;;;;;5.68;4.03;;;22.10;99.90;;;;;;5031174;28;20512;-81